createdAt,value
2019-04-05T00:01:21.240Z,3.70
2019-04-05T00:03:51.141Z,3.60
2019-04-05T00:06:21.557Z,3.60
2019-04-05T00:08:51.456Z,3.60
2019-04-05T00:11:21.461Z,3.60
2019-04-05T00:13:51.324Z,3.60
2019-04-05T00:16:21.232Z,3.60
2019-04-05T00:18:51.320Z,3.60
2019-04-05T00:21:21.224Z,3.60
2019-04-05T00:23:51.143Z,3.60
2019-04-05T00:26:21.013Z,3.60
2019-04-05T00:28:51.833Z,3.50
2019-04-05T00:31:22.203Z,3.50
2019-04-05T00:33:52.172Z,3.60
2019-04-05T00:36:22.146Z,3.60
2019-04-05T00:38:52.088Z,3.60
2019-04-05T00:41:22.201Z,3.60
2019-04-05T00:43:52.072Z,3.60
2019-04-05T00:46:21.972Z,3.60
2019-04-05T00:48:51.841Z,3.60
2019-04-05T00:51:22.184Z,3.60
2019-04-05T00:53:52.057Z,3.70
2019-04-05T00:56:21.982Z,3.60
2019-04-05T00:58:52.952Z,3.70
2019-04-05T01:01:22.857Z,3.60
2019-04-05T01:03:52.736Z,3.60
2019-04-05T01:06:22.631Z,3.50
2019-04-05T01:08:52.520Z,3.60
2019-04-05T01:11:22.429Z,3.60
2019-04-05T01:13:52.464Z,3.60
2019-04-05T01:16:22.407Z,3.60
2019-04-05T01:18:52.383Z,3.70
2019-04-05T01:21:22.324Z,3.70
2019-04-05T01:23:52.672Z,3.70
2019-04-05T01:26:22.777Z,3.70
2019-04-05T01:28:52.680Z,3.70
2019-04-05T01:31:22.578Z,3.70
2019-04-05T01:33:52.460Z,3.70
2019-04-05T01:36:22.323Z,3.70
2019-04-05T01:38:52.300Z,3.70
2019-04-05T01:41:22.168Z,3.70
2019-04-05T01:43:52.064Z,3.70
2019-04-05T01:46:22.150Z,3.70
2019-04-05T01:48:52.057Z,3.70
2019-04-05T01:51:21.959Z,3.80
2019-04-05T01:53:51.842Z,3.80
2019-04-05T01:56:21.731Z,3.80
2019-04-05T01:58:51.672Z,3.70
2019-04-05T02:01:22.744Z,3.80
2019-04-05T02:03:52.612Z,3.80
2019-04-05T02:06:22.588Z,3.80
2019-04-05T02:08:53.826Z,3.80
2019-04-05T02:11:23.728Z,3.80
2019-04-05T02:13:53.594Z,3.80
2019-04-05T02:16:23.491Z,3.80
2019-04-05T02:18:53.403Z,3.80
2019-04-05T02:21:23.289Z,3.80
2019-04-05T02:23:53.180Z,3.80
2019-04-05T02:26:23.056Z,3.80
2019-04-05T02:28:53.035Z,3.80
2019-04-05T02:31:22.920Z,3.90
2019-04-05T02:33:52.834Z,3.80
2019-04-05T02:36:22.705Z,3.80
2019-04-05T02:38:52.824Z,3.80
2019-04-05T02:41:23.096Z,3.80
2019-04-05T02:43:52.989Z,3.80
2019-04-05T02:46:24.358Z,3.80
2019-04-05T02:48:54.576Z,3.80
2019-04-05T02:51:24.755Z,3.80
2019-04-05T02:53:54.661Z,3.80
2019-04-05T02:56:24.585Z,3.70
2019-04-05T02:58:54.493Z,3.70
2019-04-05T03:01:24.429Z,3.70
2019-04-05T03:03:54.472Z,3.70
2019-04-05T03:06:24.344Z,3.70
2019-04-05T03:08:54.237Z,3.70
2019-04-05T03:11:26.321Z,3.70
2019-04-05T03:13:57.476Z,3.70
2019-04-05T03:16:40.315Z,3.70
2019-04-05T03:19:07.317Z,3.70
2019-04-05T03:21:39.595Z,3.70
2019-04-05T03:24:11.715Z,3.70
2019-04-05T03:26:44.841Z,3.60
2019-04-05T03:29:14.814Z,3.60
2019-04-05T03:31:44.771Z,3.70
2019-04-05T03:34:14.682Z,3.70
2019-04-05T03:36:44.587Z,3.70
2019-04-05T03:39:14.616Z,3.70
2019-04-05T03:41:44.560Z,3.70
2019-04-05T03:44:14.462Z,3.80
2019-04-05T03:46:56.417Z,3.80
2019-04-05T03:49:15.886Z,3.80
2019-04-05T03:51:45.740Z,3.90
2019-04-05T03:54:15.660Z,3.90
2019-04-05T03:56:45.529Z,3.90
2019-04-05T03:59:15.435Z,3.90
2019-04-05T04:01:45.326Z,3.90
2019-04-05T04:04:15.194Z,3.90
2019-04-05T04:06:45.092Z,3.80
2019-04-05T04:09:15.037Z,3.80
2019-04-05T04:11:45.025Z,3.80
2019-04-05T04:14:14.884Z,3.90
2019-04-05T04:16:44.805Z,3.90
2019-04-05T04:19:14.739Z,3.80
2019-04-05T04:21:54.201Z,3.80
2019-04-05T04:24:24.081Z,3.80
2019-04-05T04:26:54.252Z,3.80
2019-04-05T04:29:24.135Z,3.80
2019-04-05T04:31:54.041Z,3.80
2019-04-05T04:34:24.092Z,3.70
2019-04-05T04:36:54.075Z,3.70
2019-04-05T04:39:24.036Z,3.70
2019-04-05T04:41:53.937Z,3.70
2019-04-05T04:44:23.820Z,3.70
2019-04-05T04:46:53.740Z,3.70
2019-04-05T04:49:23.609Z,3.80
2019-04-05T04:51:53.540Z,3.80
2019-04-05T04:54:23.451Z,3.80
2019-04-05T04:56:53.369Z,3.80
2019-04-05T04:59:23.348Z,3.80
2019-04-05T05:01:53.231Z,3.70
2019-04-05T05:04:23.181Z,3.80
2019-04-05T05:06:53.125Z,3.80
2019-04-05T05:09:23.047Z,3.80
2019-04-05T05:11:52.953Z,3.80
2019-04-05T05:14:22.820Z,3.80
2019-04-05T05:16:52.720Z,3.80
2019-04-05T05:19:22.660Z,3.80
2019-04-05T05:21:52.573Z,3.80
2019-04-05T05:24:22.486Z,3.90
2019-04-05T05:26:52.520Z,3.90
2019-04-05T05:29:22.520Z,3.90
2019-04-05T05:31:52.428Z,3.90
2019-04-05T05:34:22.336Z,3.80
2019-04-05T05:36:52.221Z,3.80
2019-04-05T05:39:23.453Z,3.80
2019-04-05T05:41:53.436Z,3.80
2019-04-05T05:44:23.345Z,3.80
2019-04-05T05:46:53.281Z,3.90
2019-04-05T05:49:23.215Z,3.80
2019-04-05T05:51:53.084Z,3.80
2019-04-05T05:54:54.413Z,3.80
2019-04-05T05:57:24.324Z,3.80
2019-04-05T06:00:12.959Z,3.80
2019-04-05T06:02:42.863Z,3.90
2019-04-05T06:05:13.220Z,3.90
2019-04-05T06:07:43.122Z,3.90
2019-04-05T06:10:13.096Z,3.90
2019-04-05T06:12:42.972Z,3.90
2019-04-05T06:15:12.965Z,3.90
2019-04-05T06:17:42.916Z,3.90
2019-04-05T06:20:12.934Z,3.90
2019-04-05T06:22:42.872Z,3.90
2019-04-05T06:25:12.783Z,4.00
2019-04-05T06:27:42.824Z,4.00
2019-04-05T06:30:12.790Z,3.90
2019-04-05T06:32:42.680Z,3.80
2019-04-05T06:35:12.548Z,3.80
2019-04-05T06:37:45.004Z,3.80
2019-04-05T06:40:14.912Z,3.80
2019-04-05T06:42:44.860Z,3.80
2019-04-05T06:45:14.777Z,3.80
2019-04-05T06:47:44.752Z,3.80
2019-04-05T06:50:16.293Z,3.70
2019-04-05T06:53:05.676Z,3.80
2019-04-05T06:55:35.580Z,3.70
2019-04-05T06:58:05.457Z,3.70
2019-04-05T07:00:35.496Z,3.70
2019-04-05T07:03:05.440Z,3.70
2019-04-05T07:05:35.323Z,3.70
2019-04-05T07:08:05.239Z,3.80
2019-04-05T07:10:35.480Z,3.80
2019-04-05T07:13:05.475Z,3.80
2019-04-05T07:15:35.796Z,3.90
2019-04-05T07:18:05.724Z,3.90
2019-04-05T07:20:35.600Z,4.00
2019-04-05T07:23:05.268Z,4.00
2019-04-05T07:25:35.175Z,4.10
2019-04-05T07:28:05.058Z,4.10
2019-04-05T07:30:35.012Z,4.10
2019-04-05T07:33:06.092Z,4.10
2019-04-05T07:35:35.982Z,4.10
2019-04-05T07:38:05.958Z,4.10
2019-04-05T07:40:35.911Z,4.20
2019-04-05T07:43:05.815Z,4.30
2019-04-05T07:45:35.768Z,4.40
2019-04-05T07:48:05.724Z,4.50
2019-04-05T07:50:36.101Z,4.60
2019-04-05T07:53:09.637Z,4.60
2019-04-05T07:55:39.547Z,4.70
2019-04-05T07:58:09.534Z,4.70
2019-04-05T08:00:49.016Z,4.70
2019-04-05T08:03:18.987Z,4.90
2019-04-05T08:05:50.113Z,4.90
2019-04-05T08:08:46.980Z,4.90
2019-04-05T08:11:17.530Z,4.80
2019-04-05T08:13:47.536Z,4.80
2019-04-05T08:16:17.415Z,4.80
2019-04-05T08:18:56.927Z,4.70
2019-04-05T08:21:18.833Z,4.80
2019-04-05T08:23:48.776Z,4.80
2019-04-05T08:26:18.688Z,4.80
2019-04-05T08:28:48.564Z,4.90
2019-04-05T08:31:18.481Z,5.10
2019-04-05T08:33:48.392Z,5.10
2019-04-05T08:36:18.268Z,5.20
2019-04-05T08:38:48.181Z,5.30
2019-04-05T08:41:18.059Z,5.40
2019-04-05T08:43:47.991Z,5.30
2019-04-05T08:46:17.869Z,5.30
2019-04-05T08:48:47.484Z,5.40
2019-04-05T08:51:17.364Z,5.60
2019-04-05T08:53:47.346Z,5.70
2019-04-05T08:56:17.229Z,5.80
2019-04-05T08:58:47.106Z,6.00
2019-04-05T09:01:17.012Z,6.20
2019-04-05T09:03:46.597Z,6.40
2019-04-05T09:06:16.213Z,6.70
2019-04-05T09:08:45.852Z,6.80
2019-04-05T09:11:15.463Z,6.90
2019-04-05T09:13:45.346Z,6.90
2019-04-05T09:16:14.928Z,7.10
2019-04-05T09:18:44.531Z,7.00
2019-04-05T09:21:14.144Z,7.20
2019-04-05T09:23:43.714Z,7.30
2019-04-05T09:26:13.300Z,7.50
2019-04-05T09:28:42.919Z,7.60
2019-04-05T09:31:12.552Z,7.60
2019-04-05T09:33:42.140Z,7.40
2019-04-05T09:36:11.751Z,7.40
2019-04-05T09:38:41.337Z,7.30
2019-04-05T09:41:12.104Z,7.40
2019-04-05T09:43:43.151Z,7.40
2019-04-05T09:46:12.842Z,7.50
2019-04-05T09:48:42.416Z,7.50
2019-04-05T09:51:12.020Z,7.70
2019-04-05T09:53:41.767Z,7.70
2019-04-05T09:56:11.416Z,7.60
2019-04-05T09:58:41.109Z,7.40
2019-04-05T10:01:10.764Z,7.40
2019-04-05T10:03:40.375Z,7.50
2019-04-05T10:06:09.960Z,7.60
2019-04-05T10:08:39.546Z,7.50
2019-04-05T10:11:09.144Z,7.40
2019-04-05T10:13:38.727Z,7.50
2019-04-05T10:16:08.424Z,7.50
2019-04-05T10:18:38.008Z,7.40
2019-04-05T10:21:07.591Z,7.40
2019-04-05T10:23:37.190Z,7.30
2019-04-05T10:26:06.837Z,7.30
2019-04-05T10:28:36.500Z,7.30
2019-04-05T10:31:06.085Z,7.40
2019-04-05T10:33:35.878Z,7.50
2019-04-05T10:36:05.508Z,7.60
2019-04-05T10:38:35.152Z,7.60
2019-04-05T10:41:05.109Z,7.70
2019-04-05T10:43:34.739Z,7.70
2019-04-05T10:46:05.836Z,7.60
2019-04-05T10:48:35.648Z,7.60
2019-04-05T10:51:05.430Z,7.40
2019-04-05T10:53:35.103Z,7.30
2019-04-05T10:56:04.685Z,7.30
2019-04-05T10:58:34.412Z,7.30
2019-04-05T11:01:04.030Z,7.40
2019-04-05T11:03:37.820Z,7.40
2019-04-05T11:06:08.188Z,7.40
2019-04-05T11:08:37.460Z,7.50
2019-04-05T11:11:07.072Z,7.60
2019-04-05T11:13:36.652Z,7.60
2019-04-05T11:16:06.264Z,7.50
2019-04-05T11:18:36.251Z,7.40
2019-04-05T11:21:06.027Z,7.50
2019-04-05T11:23:35.605Z,7.30
2019-04-05T11:26:05.256Z,7.40
2019-04-05T11:28:34.945Z,7.30
2019-04-05T11:31:06.800Z,7.50
2019-04-05T11:33:37.685Z,7.60
2019-04-05T11:36:09.046Z,7.80
2019-04-05T11:38:41.467Z,7.70
2019-04-05T11:41:11.147Z,7.50
2019-04-05T11:43:40.877Z,7.60
2019-04-05T11:46:10.521Z,7.70
2019-04-05T11:48:41.429Z,7.70
2019-04-05T11:51:12.336Z,7.80
2019-04-05T11:53:41.955Z,7.80
2019-04-05T11:56:14.821Z,7.70
2019-04-05T11:58:44.507Z,7.60
2019-04-05T12:01:16.842Z,7.60
2019-04-05T12:03:49.351Z,7.70
2019-04-05T12:06:30.374Z,7.80
2019-04-05T12:09:01.375Z,7.90
2019-04-05T12:11:36.980Z,8.00
2019-04-05T12:14:09.730Z,8.20
2019-04-05T12:16:46.870Z,8.30
2019-04-05T12:19:17.193Z,8.40
2019-04-05T12:21:48.029Z,8.30
2019-04-05T12:24:18.787Z,8.20
2019-04-05T12:26:50.232Z,8.10
2019-04-05T12:29:21.272Z,8.30
2019-04-05T12:31:55.690Z,8.50
2019-04-05T12:34:28.396Z,8.90
2019-04-05T12:36:57.722Z,9.30
2019-04-05T12:39:31.410Z,9.70
2019-04-05T12:42:04.264Z,9.80
2019-04-05T12:44:33.920Z,9.90
2019-04-05T12:50:03.354Z,9.90
2019-04-05T12:52:40.107Z,9.90
2019-04-05T12:55:14.794Z,9.90
2019-04-05T12:57:48.454Z,10.00
2019-04-05T13:00:19.744Z,10.00
2019-04-05T13:02:50.466Z,10.10
2019-04-05T13:05:23.592Z,9.80
2019-04-05T13:07:55.946Z,9.90
2019-04-05T13:10:30.330Z,10.10
2019-04-05T13:12:58.770Z,10.10
2019-04-05T13:15:32.119Z,10.30
2019-04-05T13:18:02.382Z,10.50
2019-04-05T13:20:35.923Z,10.70
2019-04-05T13:23:10.209Z,10.70
2019-04-05T13:25:48.055Z,10.70
2019-04-05T13:28:20.612Z,10.80
2019-04-05T13:30:50.353Z,10.90
2019-04-05T13:33:23.634Z,10.90
2019-04-05T13:35:59.411Z,11.10
2019-04-05T13:38:32.203Z,11.10
2019-04-05T13:41:05.231Z,11.10
2019-04-05T13:43:35.559Z,10.80
2019-04-05T13:46:05.585Z,10.60
2019-04-05T13:48:39.656Z,10.50
2019-04-05T13:51:12.142Z,10.40
2019-04-05T13:53:41.200Z,10.20
2019-04-05T13:56:13.850Z,10.00
2019-04-05T13:58:46.924Z,9.90
2019-04-05T14:01:20.778Z,9.80
2019-04-05T14:03:50.346Z,9.70
2019-04-05T14:06:20.464Z,9.70
2019-04-05T14:08:51.340Z,9.80
2019-04-05T14:11:21.973Z,9.80
2019-04-05T14:13:51.656Z,9.90
2019-04-05T14:16:21.718Z,9.90
2019-04-05T14:18:51.788Z,9.70
2019-04-05T14:21:22.492Z,9.80
2019-04-05T14:23:54.047Z,9.80
2019-04-05T14:26:33.279Z,9.80
2019-04-05T14:29:04.372Z,9.80
2019-04-05T14:31:35.377Z,9.80
2019-04-05T14:34:06.363Z,9.90
2019-04-05T14:36:36.644Z,9.90
2019-04-05T14:39:09.588Z,10.00
2019-04-05T14:41:39.245Z,10.10
2019-04-05T14:44:09.372Z,10.20
2019-04-05T14:46:42.051Z,10.30
2019-04-05T14:49:14.240Z,10.40
2019-04-05T14:51:53.736Z,10.40
2019-04-05T14:54:17.570Z,10.40
2019-04-05T14:56:51.307Z,10.30
2019-04-05T14:59:23.108Z,10.40
2019-04-05T15:01:52.820Z,10.40
2019-04-05T15:04:22.496Z,10.50
2019-04-05T15:06:52.871Z,10.50
2019-04-05T15:09:25.591Z,10.70
2019-04-05T15:11:58.349Z,10.90
2019-04-05T15:14:48.878Z,10.90
2019-04-05T15:17:18.673Z,11.00
2019-04-05T15:19:49.968Z,10.80
2019-04-05T15:22:20.936Z,10.70
2019-04-05T15:24:50.547Z,10.50
2019-04-05T15:27:21.598Z,10.40
2019-04-05T15:29:55.460Z,10.30
2019-04-05T15:32:25.469Z,10.20
2019-04-05T15:34:56.542Z,10.20
2019-04-05T15:37:31.763Z,10.30
2019-04-05T15:40:00.448Z,10.10
2019-04-05T15:42:32.882Z,10.10
2019-04-05T15:45:08.050Z,10.10
2019-04-05T15:47:38.459Z,10.10
2019-04-05T15:50:08.219Z,10.10
2019-04-05T15:52:44.073Z,10.00
2019-04-05T15:55:18.616Z,9.90
2019-04-05T15:57:49.581Z,9.90
2019-04-05T16:00:25.853Z,9.80
2019-04-05T16:02:56.455Z,9.90
2019-04-05T16:05:29.626Z,9.90
2019-04-05T16:08:03.498Z,9.80
2019-04-05T16:10:34.704Z,9.80
2019-04-05T16:13:13.045Z,9.90
2019-04-05T16:15:45.330Z,9.80
2019-04-05T16:18:15.860Z,9.80
2019-04-05T16:20:51.250Z,9.70
2019-04-05T16:23:24.099Z,9.70
2019-04-05T16:25:55.076Z,9.60
2019-04-05T16:28:25.931Z,9.50
2019-04-05T16:31:00.677Z,9.40
2019-04-05T16:33:32.920Z,9.40
2019-04-05T16:36:04.748Z,9.30
2019-04-05T16:38:35.512Z,9.10
2019-04-05T16:41:05.157Z,9.20
2019-04-05T16:43:34.796Z,9.10
2019-04-05T16:46:04.372Z,9.10
2019-04-05T16:48:34.069Z,9.00
2019-04-05T16:51:03.637Z,9.00
2019-04-05T16:54:04.525Z,8.90
2019-04-05T16:56:36.066Z,8.90
2019-04-05T16:59:05.460Z,8.80
2019-04-05T17:01:35.135Z,8.80
2019-04-05T17:04:04.820Z,8.70
2019-04-05T17:06:34.553Z,8.60
2019-04-05T17:09:06.484Z,8.50
2019-04-05T17:11:36.596Z,8.50
2019-04-05T17:14:06.268Z,8.50
2019-04-05T17:16:35.971Z,8.40
2019-04-05T17:19:05.634Z,8.40
2019-04-05T17:21:35.619Z,8.30
2019-04-05T17:24:05.343Z,8.20
2019-04-05T17:26:36.214Z,8.10
2019-04-05T17:29:05.889Z,8.10
2019-04-05T17:31:35.604Z,8.00
2019-04-05T17:34:05.184Z,8.00
2019-04-05T17:36:34.930Z,7.90
2019-04-05T17:39:07.245Z,7.70
2019-04-05T17:41:37.000Z,7.70
2019-04-05T17:44:06.645Z,7.60
2019-04-05T17:46:36.320Z,7.50
2019-04-05T17:49:07.008Z,7.50
2019-04-05T17:51:37.681Z,7.40
2019-04-05T17:54:07.301Z,7.30
2019-04-05T17:56:37.013Z,7.20
2019-04-05T17:59:06.695Z,7.10
2019-04-05T18:01:38.667Z,7.10
2019-04-05T18:04:07.653Z,7.00
2019-04-05T18:06:37.227Z,7.00
2019-04-05T18:09:07.392Z,6.90
2019-04-05T18:11:37.241Z,6.80
2019-04-05T18:14:06.924Z,6.80
2019-04-05T18:16:36.646Z,6.70
2019-04-05T18:19:06.309Z,6.60
2019-04-05T18:21:35.992Z,6.50
2019-04-05T18:24:05.948Z,6.40
2019-04-05T18:26:35.875Z,6.30
2019-04-05T18:29:05.804Z,6.20
2019-04-05T18:31:37.196Z,6.10
2019-04-05T18:34:07.076Z,6.00
2019-04-05T18:36:36.684Z,6.00
2019-04-05T18:39:07.427Z,5.90
2019-04-05T18:41:38.477Z,5.80
2019-04-05T18:44:08.462Z,5.70
2019-04-05T18:46:39.618Z,5.60
2019-04-05T18:49:09.600Z,5.50
2019-04-05T18:51:39.548Z,5.50
2019-04-05T18:54:09.464Z,5.40
2019-04-05T18:56:39.412Z,5.40
2019-04-05T18:59:09.345Z,5.30
2019-04-05T19:01:39.213Z,5.30
2019-04-05T19:04:09.134Z,5.20
2019-04-05T19:06:39.006Z,5.20
2019-04-05T19:09:11.774Z,5.10
2019-04-05T19:11:41.059Z,5.10
2019-04-05T19:14:10.664Z,5.00
2019-04-05T19:16:40.692Z,4.90
2019-04-05T19:19:10.644Z,4.80
2019-04-05T19:21:40.588Z,4.80
2019-04-05T19:24:10.500Z,4.70
2019-04-05T19:26:40.877Z,4.70
2019-04-05T19:29:10.760Z,4.70
2019-04-05T19:49:40.615Z,4.50
2019-04-05T19:52:10.686Z,4.40
2019-04-05T19:54:40.644Z,4.40
2019-04-05T19:57:10.552Z,4.40
2019-04-05T19:59:40.500Z,4.40
2019-04-05T20:02:10.512Z,4.40
2019-04-05T20:04:40.458Z,4.30
2019-04-05T20:07:10.395Z,4.30
2019-04-05T20:09:40.339Z,4.20
2019-04-05T20:12:10.420Z,4.20
2019-04-05T20:14:40.307Z,4.10
2019-04-05T20:17:10.288Z,4.10
2019-04-05T20:19:40.237Z,4.10
2019-04-05T20:22:10.211Z,4.10
2019-04-05T20:24:39.848Z,4.00
2019-04-05T20:27:09.710Z,4.00
2019-04-05T20:29:39.735Z,3.90
2019-04-05T20:32:09.721Z,3.80
2019-04-05T20:34:39.667Z,3.80
2019-04-05T20:37:09.577Z,3.80
2019-04-05T20:39:39.530Z,3.80
2019-04-05T20:42:09.132Z,3.80
2019-04-05T20:44:39.004Z,3.80
2019-04-05T20:47:08.924Z,3.80
2019-04-05T20:49:38.876Z,3.80
2019-04-05T20:52:08.768Z,3.80
2019-04-05T20:54:38.671Z,3.80
2019-04-05T20:57:08.542Z,3.80
2019-04-05T20:59:38.457Z,3.80
2019-04-05T21:02:08.328Z,3.80
2019-04-05T21:04:38.242Z,3.80
2019-04-05T21:07:08.180Z,3.70
2019-04-05T21:09:38.206Z,3.70
2019-04-05T21:12:08.424Z,3.70
2019-04-05T21:14:38.327Z,3.70
2019-04-05T21:17:08.210Z,3.70
2019-04-05T21:19:38.115Z,3.70
2019-04-05T21:22:08.176Z,3.60
2019-04-05T21:24:38.076Z,3.60
2019-04-05T21:27:07.968Z,3.70
2019-04-05T21:29:37.872Z,3.70
2019-04-05T21:32:07.808Z,3.80
2019-04-05T21:34:37.688Z,3.80
2019-04-05T21:37:07.596Z,3.80
2019-04-05T21:39:37.477Z,3.80
2019-04-05T21:42:07.456Z,3.70
2019-04-05T21:44:38.349Z,3.70
2019-04-05T21:47:08.760Z,3.60
2019-04-05T21:49:38.704Z,3.60
2019-04-05T21:52:08.622Z,3.50
2019-04-05T21:54:47.097Z,3.50
2019-04-05T21:57:10.023Z,3.50
2019-04-05T21:59:39.892Z,3.50
2019-04-05T22:02:09.770Z,3.50
2019-04-05T22:04:39.464Z,3.60
2019-04-05T22:07:09.613Z,3.60
2019-04-05T22:09:39.528Z,3.70
2019-04-05T22:12:09.405Z,3.70
2019-04-05T22:14:39.317Z,3.70
2019-04-05T22:17:09.188Z,3.70
2019-04-05T22:19:39.102Z,3.70
2019-04-05T22:22:08.976Z,3.70
2019-04-05T22:24:38.956Z,3.70
2019-04-05T22:27:08.832Z,3.70
2019-04-05T22:29:38.712Z,3.70
2019-04-05T22:32:08.621Z,3.80
2019-04-05T22:34:38.532Z,3.80
2019-04-05T22:37:08.101Z,3.90
2019-04-05T22:39:38.085Z,4.00
2019-04-05T22:42:07.963Z,4.00
2019-04-05T22:44:41.337Z,4.10
2019-04-05T22:47:09.388Z,4.10
2019-04-05T22:49:39.347Z,4.20
2019-04-05T22:52:09.228Z,4.30
2019-04-05T22:54:39.140Z,4.30
2019-04-05T22:57:10.731Z,4.30
2019-04-05T22:59:40.706Z,4.40
2019-04-05T23:02:10.581Z,4.40
2019-04-05T23:04:40.492Z,4.50
2019-04-05T23:07:10.372Z,4.50
2019-04-05T23:09:40.016Z,4.50
2019-04-05T23:12:09.938Z,4.50
2019-04-05T23:14:39.920Z,4.60
2019-04-05T23:17:09.795Z,4.60
2019-04-05T23:19:39.679Z,4.50
2019-04-05T23:22:09.659Z,4.50
2019-04-05T23:24:39.593Z,4.60
2019-04-05T23:27:09.472Z,4.50
2019-04-05T23:29:39.379Z,4.50
2019-04-05T23:32:09.292Z,4.50
2019-04-05T23:34:39.192Z,4.50
2019-04-05T23:37:09.076Z,4.50
2019-04-05T23:39:38.951Z,4.60
2019-04-05T23:42:08.860Z,4.60
2019-04-05T23:44:38.739Z,4.70
2019-04-05T23:47:09.984Z,4.70
2019-04-05T23:49:39.860Z,4.70
2019-04-05T23:52:09.776Z,4.80
2019-04-05T23:54:39.652Z,4.80
2019-04-05T23:57:09.536Z,4.90
2019-04-05T23:59:39.448Z,4.90
